createdAt,value
2019-03-29T00:01:57.782Z,13.49
2019-03-29T00:04:36.807Z,16.05
2019-03-29T00:07:10.425Z,18.84
2019-03-29T00:09:44.064Z,17.68
2019-03-29T00:12:17.748Z,16.29
2019-03-29T00:14:51.344Z,15.39
2019-03-29T00:17:25.258Z,14.71
2019-03-29T00:19:58.889Z,14.19
2019-03-29T00:22:32.585Z,13.76
2019-03-29T00:25:07.087Z,13.42
2019-03-29T00:27:41.079Z,13.05
2019-03-29T00:30:15.551Z,15.29
2019-03-29T00:32:49.339Z,18.62
2019-03-29T00:35:23.088Z,17.77
2019-03-29T00:38:02.196Z,16.29
2019-03-29T00:40:35.831Z,15.25
2019-03-29T00:43:09.449Z,14.52
2019-03-29T00:45:43.202Z,13.98
2019-03-29T00:48:18.258Z,13.57
2019-03-29T00:50:51.880Z,13.21
2019-03-29T00:53:25.612Z,12.85
2019-03-29T00:56:00.766Z,13.49
2019-03-29T00:58:35.883Z,17.25
2019-03-29T01:01:11.029Z,17.34
2019-03-29T01:03:46.090Z,15.94
2019-03-29T01:06:21.272Z,14.86
2019-03-29T01:09:01.003Z,14.12
2019-03-29T01:11:42.263Z,13.57
2019-03-29T01:14:21.020Z,13.16
2019-03-29T01:17:00.427Z,12.80
2019-03-29T01:19:39.922Z,15.01
2019-03-29T01:22:18.889Z,17.94
2019-03-29T01:24:58.047Z,16.76
2019-03-29T01:27:37.934Z,15.39
2019-03-29T01:30:16.788Z,14.52
2019-03-29T01:32:56.283Z,13.88
2019-03-29T01:35:35.977Z,13.42
2019-03-29T01:38:21.791Z,13.01
2019-03-29T01:40:56.649Z,12.67
2019-03-29T01:43:35.290Z,12.40
2019-03-29T01:46:15.594Z,14.16
2019-03-29T01:48:55.336Z,17.94
2019-03-29T01:51:35.189Z,17.43
2019-03-29T01:54:14.887Z,15.93
2019-03-29T01:56:53.904Z,14.88
2019-03-29T01:59:33.316Z,14.21
2019-03-29T02:02:11.973Z,13.66
2019-03-29T02:04:50.959Z,13.28
2019-03-29T02:07:30.300Z,12.91
2019-03-29T02:10:11.708Z,12.57
2019-03-29T02:12:50.271Z,12.29
2019-03-29T02:15:29.658Z,14.22
2019-03-29T02:18:08.374Z,17.72
2019-03-29T02:20:47.439Z,17.03
2019-03-29T02:23:27.129Z,15.63
2019-03-29T02:26:06.550Z,14.66
2019-03-29T02:28:46.375Z,14.02
2019-03-29T02:31:28.600Z,13.46
2019-03-29T02:34:06.630Z,13.04
2019-03-29T02:36:46.285Z,12.70
2019-03-29T02:39:27.030Z,12.39
2019-03-29T02:42:01.008Z,12.09
2019-03-29T02:44:35.003Z,11.84
2019-03-29T02:47:08.998Z,11.60
2019-03-29T02:49:42.693Z,11.39
2019-03-29T02:52:16.299Z,11.19
2019-03-29T02:54:49.972Z,10.99
2019-03-29T02:57:23.588Z,10.85
2019-03-29T02:59:57.160Z,10.67
2019-03-29T03:02:30.783Z,10.54
2019-03-29T03:05:04.393Z,12.71
2019-03-29T03:07:38.089Z,16.27
2019-03-29T03:10:17.482Z,16.21
2019-03-29T03:12:51.170Z,14.81
2019-03-29T03:15:24.889Z,13.85
2019-03-29T03:17:58.509Z,13.22
2019-03-29T03:20:32.205Z,12.77
2019-03-29T03:23:05.848Z,12.41
2019-03-29T03:25:40.550Z,12.13
2019-03-29T03:28:14.202Z,11.88
2019-03-29T03:30:47.924Z,11.63
2019-03-29T03:33:21.638Z,11.39
2019-03-29T03:35:55.367Z,11.17
2019-03-29T03:38:29.183Z,13.58
2019-03-29T03:41:04.012Z,17.11
2019-03-29T03:43:43.088Z,16.80
2019-03-29T03:46:22.881Z,15.28
2019-03-29T03:48:56.577Z,14.25
2019-03-29T03:51:30.281Z,13.58
2019-03-29T03:54:04.233Z,13.07
2019-03-29T03:56:38.728Z,12.64
2019-03-29T03:59:12.663Z,12.29
2019-03-29T04:01:46.361Z,11.99
2019-03-29T04:04:20.083Z,11.70
2019-03-29T04:06:53.795Z,11.43
2019-03-29T04:09:27.522Z,11.17
2019-03-29T04:12:01.181Z,13.61
2019-03-29T04:14:34.890Z,17.22
2019-03-29T04:17:08.680Z,16.76
2019-03-29T04:19:42.326Z,15.25
2019-03-29T04:22:15.985Z,14.19
2019-03-29T04:24:49.691Z,13.49
2019-03-29T04:27:23.283Z,12.95
2019-03-29T04:29:56.957Z,12.54
2019-03-29T04:32:30.575Z,12.21
2019-03-29T04:35:04.314Z,11.91
2019-03-29T04:37:37.952Z,14.44
2019-03-29T04:40:11.685Z,17.73
2019-03-29T04:42:45.290Z,17.00
2019-03-29T04:45:18.998Z,15.52
2019-03-29T04:47:52.616Z,14.46
2019-03-29T04:50:32.706Z,13.77
2019-03-29T04:53:11.353Z,13.21
2019-03-29T04:55:50.896Z,12.80
2019-03-29T04:58:36.007Z,12.41
2019-03-29T05:01:17.355Z,12.35
2019-03-29T05:03:49.328Z,15.74
2019-03-29T05:06:28.434Z,16.70
2019-03-29T05:09:09.825Z,15.32
2019-03-29T05:11:49.014Z,14.23
2019-03-29T05:14:28.185Z,13.53
2019-03-29T05:17:07.346Z,13.04
2019-03-29T05:19:46.546Z,12.63
2019-03-29T05:22:25.695Z,12.91
2019-03-29T05:25:04.784Z,16.60
2019-03-29T05:27:38.408Z,17.19
2019-03-29T05:30:21.560Z,15.81
2019-03-29T05:32:56.283Z,14.71
2019-03-29T05:35:30.155Z,14.00
2019-03-29T05:38:32.319Z,13.50
2019-03-29T05:41:22.414Z,12.98
2019-03-29T05:44:01.476Z,14.31
2019-03-29T05:47:01.133Z,18.11
2019-03-29T05:49:47.581Z,17.45
2019-03-29T05:52:21.255Z,15.98
2019-03-29T05:54:54.955Z,15.04
2019-03-29T05:57:28.743Z,14.39
2019-03-29T06:00:02.695Z,13.85
2019-03-29T06:02:36.367Z,13.49
2019-03-29T06:05:10.265Z,13.15
2019-03-29T06:07:43.965Z,15.43
2019-03-29T06:10:17.573Z,18.89
2019-03-29T06:12:51.261Z,17.87
2019-03-29T06:15:24.973Z,16.45
2019-03-29T06:17:58.650Z,15.45
2019-03-29T06:20:32.246Z,14.77
2019-03-29T06:23:05.847Z,14.26
2019-03-29T06:25:39.458Z,13.90
2019-03-29T06:28:14.125Z,13.51
2019-03-29T06:30:50.024Z,13.22
2019-03-29T06:33:23.732Z,15.43
2019-03-29T06:35:59.691Z,18.75
2019-03-29T06:38:35.624Z,17.93
2019-03-29T06:41:09.234Z,16.48
2019-03-29T06:43:42.901Z,15.55
2019-03-29T06:46:16.533Z,14.95
2019-03-29T06:48:50.191Z,14.49
2019-03-29T06:51:23.931Z,14.13
2019-03-29T06:53:57.641Z,13.80
2019-03-29T06:56:31.292Z,13.54
2019-03-29T06:59:05.020Z,13.28
2019-03-29T07:01:38.640Z,13.08
2019-03-29T07:04:12.335Z,12.85
2019-03-29T07:06:45.973Z,12.74
2019-03-29T07:09:19.974Z,15.22
2019-03-29T07:11:53.671Z,18.18
2019-03-29T07:14:27.318Z,17.11
2019-03-29T07:17:00.941Z,15.95
2019-03-29T07:19:34.588Z,15.21
2019-03-29T07:22:08.217Z,14.74
2019-03-29T07:24:41.907Z,14.39
2019-03-29T07:27:15.621Z,14.07
2019-03-29T07:29:49.252Z,13.83
2019-03-29T07:32:23.050Z,13.60
2019-03-29T07:34:56.707Z,13.40
2019-03-29T07:37:30.336Z,13.22
2019-03-29T07:40:04.016Z,13.05
2019-03-29T07:42:37.690Z,12.89
2019-03-29T07:45:11.583Z,12.71
2019-03-29T07:47:45.152Z,12.56
2019-03-29T07:50:19.207Z,12.40
2019-03-29T07:52:53.014Z,12.26
2019-03-29T07:55:26.665Z,12.16
2019-03-29T07:58:00.340Z,12.03
2019-03-29T08:00:33.966Z,11.94
2019-03-29T08:03:07.571Z,11.82
2019-03-29T08:05:41.197Z,11.75
2019-03-29T08:08:23.923Z,11.68
2019-03-29T08:10:53.447Z,11.64
2019-03-29T08:13:25.576Z,11.61
2019-03-29T08:15:59.610Z,11.54
2019-03-29T08:18:33.232Z,11.50
2019-03-29T08:21:06.902Z,11.47
2019-03-29T08:23:40.960Z,11.42
2019-03-29T08:26:14.652Z,11.39
2019-03-29T08:28:49.900Z,11.31
2019-03-29T08:31:23.579Z,11.30
2019-03-29T08:33:57.206Z,11.29
2019-03-29T08:36:30.876Z,11.29
2019-03-29T08:39:06.136Z,11.27
2019-03-29T08:41:39.809Z,11.27
2019-03-29T08:44:13.462Z,11.27
2019-03-29T08:46:47.182Z,11.26
2019-03-29T08:49:20.840Z,11.27
2019-03-29T08:51:54.424Z,11.27
2019-03-29T08:54:28.035Z,11.29
2019-03-29T08:57:01.645Z,11.30
2019-03-29T08:59:35.323Z,11.33
2019-03-29T09:02:09.310Z,11.33
2019-03-29T09:04:44.440Z,11.35
2019-03-29T09:07:18.467Z,11.36
2019-03-29T09:09:52.191Z,11.37
2019-03-29T09:12:25.829Z,11.40
2019-03-29T09:15:03.261Z,11.43
2019-03-29T09:17:34.933Z,11.44
2019-03-29T09:20:10.839Z,11.43
2019-03-29T09:22:44.489Z,11.43
2019-03-29T09:25:20.916Z,11.44
2019-03-29T09:27:53.664Z,11.44
2019-03-29T09:30:27.324Z,11.44
2019-03-29T09:33:00.983Z,11.43
2019-03-29T09:35:34.659Z,11.43
2019-03-29T09:38:08.293Z,11.44
2019-03-29T09:40:41.876Z,11.44
2019-03-29T09:43:15.559Z,11.42
2019-03-29T09:45:49.157Z,11.43
2019-03-29T09:48:22.714Z,11.43
2019-03-29T09:50:56.345Z,11.40
2019-03-29T09:53:31.741Z,11.42
2019-03-29T09:56:05.536Z,11.39
2019-03-29T09:58:39.155Z,11.42
2019-03-29T10:01:12.827Z,11.40
2019-03-29T10:03:46.549Z,11.43
2019-03-29T10:06:20.348Z,11.43
2019-03-29T10:08:55.558Z,11.44
2019-03-29T10:11:29.783Z,12.54
2019-03-29T10:14:03.447Z,16.72
2019-03-29T10:16:37.085Z,16.96
2019-03-29T10:19:10.695Z,15.72
2019-03-29T10:21:44.346Z,14.94
2019-03-29T10:24:17.955Z,14.44
2019-03-29T10:26:51.559Z,14.11
2019-03-29T10:29:25.231Z,13.87
2019-03-29T10:31:58.879Z,13.72
2019-03-29T10:34:37.390Z,13.50
2019-03-29T10:37:10.082Z,13.36
2019-03-29T10:39:45.094Z,13.23
2019-03-29T10:42:18.693Z,13.12
2019-03-29T10:44:52.305Z,13.02
2019-03-29T10:47:42.542Z,12.94
2019-03-29T10:50:01.395Z,12.92
2019-03-29T10:52:35.055Z,12.88
2019-03-29T10:55:08.979Z,12.89
2019-03-29T10:57:42.573Z,12.91
2019-03-29T11:00:24.106Z,12.94
2019-03-29T11:02:57.788Z,13.01
2019-03-29T11:05:31.468Z,13.08
2019-03-29T11:08:05.225Z,13.18
2019-03-29T11:10:39.909Z,13.23
2019-03-29T11:13:14.447Z,13.33
2019-03-29T11:15:48.356Z,13.40
2019-03-29T11:18:22.033Z,13.45
2019-03-29T11:20:55.672Z,13.54
2019-03-29T11:23:29.264Z,13.60
2019-03-29T11:26:03.018Z,13.68
2019-03-29T11:28:36.615Z,13.76
2019-03-29T11:31:10.204Z,13.81
2019-03-29T11:33:45.587Z,13.90
2019-03-29T11:36:19.592Z,13.94
2019-03-29T11:38:54.421Z,14.01
2019-03-29T11:41:30.007Z,14.04
2019-03-29T11:44:03.625Z,14.02
2019-03-29T11:46:38.268Z,14.05
2019-03-29T11:49:12.209Z,14.05
2019-03-29T11:51:49.135Z,14.09
2019-03-29T11:54:22.784Z,14.09
2019-03-29T11:56:56.464Z,14.09
2019-03-29T11:59:31.233Z,14.11
2019-03-29T12:02:04.934Z,14.12
2019-03-29T12:04:38.646Z,14.13
2019-03-29T12:07:14.101Z,14.13
2019-03-29T12:09:49.131Z,14.19
2019-03-29T12:12:22.808Z,14.19
2019-03-29T12:14:56.410Z,14.25
2019-03-29T12:17:30.035Z,14.31
2019-03-29T12:20:05.000Z,14.39
2019-03-29T12:22:38.672Z,14.50
2019-03-29T12:25:12.353Z,14.60
2019-03-29T12:27:46.020Z,14.69
2019-03-29T12:30:31.429Z,14.83
2019-03-29T12:32:55.322Z,14.90
2019-03-29T12:35:29.002Z,15.00
2019-03-29T12:38:04.317Z,15.05
2019-03-29T12:40:38.121Z,15.19
2019-03-29T12:43:12.778Z,15.25
2019-03-29T12:45:46.533Z,15.32
2019-03-29T12:48:20.106Z,15.41
2019-03-29T12:50:53.729Z,15.46
2019-03-29T12:53:27.354Z,15.56
2019-03-29T12:56:00.972Z,15.57
2019-03-29T12:58:35.827Z,15.62
2019-03-29T13:01:09.671Z,15.66
2019-03-29T13:03:43.457Z,15.69
2019-03-29T13:06:17.098Z,15.70
2019-03-29T13:08:50.774Z,15.73
2019-03-29T13:11:24.500Z,15.73
2019-03-29T13:14:09.636Z,15.70
2019-03-29T13:16:33.547Z,15.67
2019-03-29T13:19:07.152Z,15.60
2019-03-29T13:21:41.799Z,15.56
2019-03-29T13:24:16.094Z,15.50
2019-03-29T13:26:50.089Z,15.47
2019-03-29T13:29:23.716Z,15.39
2019-03-29T13:31:57.392Z,15.32
2019-03-29T13:34:31.030Z,15.23
2019-03-29T13:37:04.621Z,15.17
2019-03-29T13:39:38.304Z,15.09
2019-03-29T13:42:11.955Z,15.01
2019-03-29T13:44:45.960Z,14.94
2019-03-29T13:47:20.780Z,14.87
2019-03-29T13:49:54.453Z,14.80
2019-03-29T13:52:31.111Z,14.73
2019-03-29T13:55:04.375Z,14.64
2019-03-29T13:57:37.952Z,14.56
2019-03-29T14:00:13.728Z,14.52
2019-03-29T14:02:47.329Z,14.44
2019-03-29T14:05:20.968Z,14.40
2019-03-29T14:07:54.633Z,14.33
2019-03-29T14:10:28.223Z,14.26
2019-03-29T14:13:03.097Z,14.22
2019-03-29T14:15:36.825Z,14.16
2019-03-29T14:18:10.597Z,14.11
2019-03-29T14:20:44.383Z,14.05
2019-03-29T14:23:18.116Z,13.98
2019-03-29T14:25:51.734Z,13.94
2019-03-29T14:28:25.491Z,13.85
2019-03-29T14:30:59.212Z,13.80
2019-03-29T14:33:32.907Z,13.76
2019-03-29T14:36:06.627Z,13.72
2019-03-29T14:38:40.269Z,13.66
2019-03-29T14:41:13.891Z,13.61
2019-03-29T14:43:47.509Z,13.57
2019-03-29T14:46:21.237Z,13.54
2019-03-29T14:48:54.960Z,13.54
2019-03-29T14:51:28.665Z,13.51
2019-03-29T14:54:02.682Z,13.46
2019-03-29T14:56:36.279Z,13.47
2019-03-29T14:59:10.035Z,13.46
2019-03-29T15:01:43.706Z,13.45
2019-03-29T15:04:17.880Z,13.43
2019-03-29T15:06:51.597Z,13.39
2019-03-29T15:09:25.789Z,13.37
2019-03-29T15:11:59.615Z,13.35
2019-03-29T15:14:35.466Z,13.32
2019-03-29T15:17:09.241Z,13.29
2019-03-29T15:19:42.890Z,13.26
2019-03-29T15:22:16.641Z,13.21
2019-03-29T15:24:50.356Z,13.19
2019-03-29T15:27:24.056Z,13.18
2019-03-29T15:29:57.819Z,13.14
2019-03-29T15:32:31.545Z,13.11
2019-03-29T15:35:05.197Z,13.08
2019-03-29T15:37:38.856Z,13.07
2019-03-29T15:40:12.909Z,13.02
2019-03-29T15:42:46.665Z,12.97
2019-03-29T15:45:21.937Z,12.92
2019-03-29T15:47:55.583Z,12.91
2019-03-29T15:50:29.248Z,15.32
2019-03-29T15:53:03.039Z,19.07
2019-03-29T15:55:36.789Z,18.99
2019-03-29T15:58:10.660Z,17.59
2019-03-29T16:00:44.749Z,16.69
2019-03-29T16:03:18.739Z,16.10
2019-03-29T16:05:52.736Z,15.72
2019-03-29T16:08:26.614Z,15.42
2019-03-29T16:11:00.466Z,15.15
2019-03-29T16:13:36.446Z,14.91
2019-03-29T16:16:10.286Z,14.71
2019-03-29T16:18:46.803Z,14.55
2019-03-29T16:21:20.663Z,14.36
2019-03-29T16:23:54.640Z,14.22
2019-03-29T16:26:28.508Z,14.07
2019-03-29T16:29:02.344Z,13.93
2019-03-29T16:31:37.583Z,13.81
2019-03-29T16:34:11.236Z,13.67
2019-03-29T16:36:47.915Z,13.56
2019-03-29T16:39:21.602Z,13.46
2019-03-29T16:41:55.282Z,13.35
2019-03-29T16:44:29.192Z,13.26
2019-03-29T16:47:03.124Z,13.14
2019-03-29T16:49:37.136Z,13.05
2019-03-29T16:52:12.239Z,12.97
2019-03-29T16:54:46.307Z,12.89
2019-03-29T16:57:21.021Z,12.81
2019-03-29T16:59:54.788Z,12.77
2019-03-29T17:02:29.295Z,12.67
2019-03-29T17:05:03.188Z,15.35
2019-03-29T17:07:37.208Z,18.78
2019-03-29T17:10:11.652Z,17.94
2019-03-29T17:12:45.576Z,16.70
2019-03-29T17:15:19.371Z,15.87
2019-03-29T17:17:53.151Z,15.36
2019-03-29T17:20:26.854Z,14.97
2019-03-29T17:23:00.723Z,14.71
2019-03-29T17:25:35.187Z,14.43
2019-03-29T17:28:08.981Z,14.22
2019-03-29T17:30:47.328Z,14.02
2019-03-29T17:33:22.481Z,13.83
2019-03-29T17:35:57.375Z,13.64
2019-03-29T17:38:31.345Z,13.49
2019-03-29T17:41:05.193Z,13.32
2019-03-29T17:43:39.060Z,13.16
2019-03-29T17:46:16.437Z,13.05
2019-03-29T17:48:48.365Z,12.91
2019-03-29T17:51:23.433Z,12.80
2019-03-29T17:54:00.297Z,12.66
2019-03-29T17:56:34.321Z,12.56
2019-03-29T17:59:08.328Z,15.09
2019-03-29T18:01:42.019Z,18.31
2019-03-29T18:04:15.902Z,17.48
2019-03-29T18:06:49.692Z,16.27
2019-03-29T18:09:23.462Z,15.46
2019-03-29T18:11:57.253Z,14.95
2019-03-29T18:14:31.516Z,14.59
2019-03-29T18:17:05.435Z,14.26
2019-03-29T18:19:39.285Z,14.01
2019-03-29T18:22:12.967Z,13.80
2019-03-29T18:24:47.335Z,13.58
2019-03-29T18:27:22.113Z,13.40
2019-03-29T18:29:55.923Z,13.21
2019-03-29T18:32:29.991Z,13.05
2019-03-29T18:35:03.762Z,12.92
2019-03-29T18:37:37.639Z,12.77
2019-03-29T18:40:27.032Z,12.63
2019-03-29T18:43:00.981Z,12.50
2019-03-29T18:45:34.823Z,14.92
2019-03-29T18:48:08.767Z,17.93
2019-03-29T18:50:42.594Z,17.10
2019-03-29T18:53:16.833Z,15.93
2019-03-29T18:55:50.529Z,15.15
2019-03-29T18:58:24.276Z,14.64
2019-03-29T19:00:58.032Z,14.28
2019-03-29T19:03:31.869Z,13.98
2019-03-29T19:06:05.976Z,13.70
2019-03-29T19:08:40.087Z,13.49
2019-03-29T19:11:14.048Z,13.29
2019-03-29T19:13:48.119Z,13.12
2019-03-29T19:16:21.923Z,12.94
2019-03-29T19:19:09.173Z,12.78
2019-03-29T19:21:31.621Z,12.63
2019-03-29T19:24:05.304Z,12.49
2019-03-29T19:26:39.291Z,12.35
2019-03-29T19:29:13.220Z,12.26
2019-03-29T19:31:47.234Z,12.15
2019-03-29T19:34:21.191Z,12.03
2019-03-29T19:36:55.229Z,14.88
2019-03-29T19:39:29.099Z,17.92
2019-03-29T19:42:03.025Z,17.00
2019-03-29T19:44:36.805Z,15.83
2019-03-29T19:47:13.844Z,15.04
2019-03-29T19:49:46.333Z,14.53
2019-03-29T19:52:20.227Z,14.13
2019-03-29T19:54:53.931Z,13.85
2019-03-29T19:57:27.746Z,13.58
2019-03-29T20:00:01.651Z,13.37
2019-03-29T20:02:35.467Z,13.16
2019-03-29T20:05:27.724Z,12.99
2019-03-29T20:08:01.775Z,12.80
2019-03-29T20:10:37.701Z,12.64
2019-03-29T20:13:11.378Z,12.47
2019-03-29T20:15:45.203Z,12.32
2019-03-29T20:18:20.064Z,12.18
2019-03-29T20:20:54.118Z,14.44
2019-03-29T20:23:27.813Z,17.94
2019-03-29T20:26:01.837Z,17.72
2019-03-29T20:28:38.393Z,16.35
2019-03-29T20:31:12.499Z,15.35
2019-03-29T20:33:46.676Z,14.71
2019-03-29T20:36:23.383Z,14.29
2019-03-29T20:38:57.176Z,13.93
2019-03-29T20:41:31.005Z,13.61
2019-03-29T20:44:04.868Z,13.35
2019-03-29T20:46:38.869Z,13.09
2019-03-29T20:49:12.740Z,12.91
2019-03-29T20:51:47.373Z,12.70
2019-03-29T20:54:21.303Z,12.50
2019-03-29T20:56:55.161Z,12.30
2019-03-29T20:59:29.298Z,12.12
2019-03-29T21:02:03.266Z,11.96
2019-03-29T21:04:37.343Z,14.05
2019-03-29T21:07:12.950Z,17.73
2019-03-29T21:09:55.585Z,17.73
2019-03-29T21:12:29.407Z,16.25
2019-03-29T21:15:04.272Z,15.25
2019-03-29T21:17:39.527Z,14.56
2019-03-29T21:20:14.285Z,14.09
2019-03-29T21:22:48.578Z,13.73
2019-03-29T21:25:22.268Z,13.42
2019-03-29T21:27:55.956Z,13.14
2019-03-29T21:30:30.104Z,12.87
2019-03-29T21:33:06.803Z,12.64
2019-03-29T21:35:40.706Z,12.39
2019-03-29T21:38:14.470Z,12.19
2019-03-29T21:40:48.157Z,12.01
2019-03-29T21:43:22.321Z,11.82
2019-03-29T21:45:56.228Z,14.11
2019-03-29T21:48:30.034Z,17.72
2019-03-29T21:51:04.523Z,17.28
2019-03-29T21:53:38.448Z,15.86
2019-03-29T21:56:12.239Z,14.88
2019-03-29T21:58:46.240Z,14.25
2019-03-29T22:01:20.216Z,13.77
2019-03-29T22:03:55.652Z,13.40
2019-03-29T22:06:29.441Z,13.08
2019-03-29T22:09:06.597Z,12.77
2019-03-29T22:11:41.935Z,12.53
2019-03-29T22:14:15.828Z,12.28
2019-03-29T22:16:49.715Z,12.03
2019-03-29T22:19:23.476Z,11.81
2019-03-29T22:21:57.126Z,11.63
2019-03-29T22:24:30.746Z,13.93
2019-03-29T22:27:04.476Z,17.49
2019-03-29T22:29:38.174Z,17.31
2019-03-29T22:32:12.023Z,15.80
2019-03-29T22:34:45.886Z,14.79
2019-03-29T22:37:19.767Z,14.09
2019-03-29T22:39:53.564Z,13.57
2019-03-29T22:42:28.424Z,13.16
2019-03-29T22:45:02.293Z,12.77
2019-03-29T22:47:36.154Z,12.44
2019-03-29T22:50:10.578Z,12.15
2019-03-29T22:52:44.657Z,11.88
2019-03-29T22:55:18.445Z,11.63
2019-03-29T22:57:52.554Z,11.35
2019-03-29T23:00:36.648Z,11.10
2019-03-29T23:03:12.094Z,13.88
2019-03-29T23:05:45.792Z,17.21
2019-03-29T23:08:19.503Z,16.64
2019-03-29T23:10:53.232Z,15.14
2019-03-29T23:13:27.058Z,14.11
2019-03-29T23:16:00.960Z,13.37
2019-03-29T23:18:34.761Z,12.85
2019-03-29T23:21:08.427Z,12.43
2019-03-29T23:23:42.040Z,12.05
2019-03-29T23:26:15.855Z,11.70
2019-03-29T23:28:51.117Z,11.40
2019-03-29T23:31:24.868Z,11.06
2019-03-29T23:33:58.705Z,10.77
2019-03-29T23:36:32.404Z,10.48
2019-03-29T23:39:07.018Z,12.72
2019-03-29T23:41:40.703Z,16.15
2019-03-29T23:44:14.483Z,16.15
2019-03-29T23:46:49.237Z,14.60
2019-03-29T23:49:22.970Z,13.45
2019-03-29T23:51:56.668Z,12.70
2019-03-29T23:54:30.398Z,12.16
2019-03-29T23:57:04.020Z,11.71
2019-03-29T23:59:37.705Z,11.31
